sensor_id;sensor_type;location;lat;lon;timestamp;P1;durP1;ratioP1;P2;durP2;ratioP2
17414;SDS011;8825;48.086;16.426;2023-05-07T00:02:06;2.90;;;2.70;;
17414;SDS011;8825;48.086;16.426;2023-05-07T00:07:55;2.70;;;2.20;;
17414;SDS011;8825;48.086;16.426;2023-05-07T00:10:23;2.37;;;2.17;;
17414;SDS011;8825;48.086;16.426;2023-05-07T00:12:52;2.10;;;2.00;;
17414;SDS011;8825;48.086;16.426;2023-05-07T00:15:56;2.80;;;2.60;;
17414;SDS011;8825;48.086;16.426;2023-05-07T00:21:46;2.83;;;2.63;;
17414;SDS011;8825;48.086;16.426;2023-05-07T00:27:36;3.53;;;3.23;;
17414;SDS011;8825;48.086;16.426;2023-05-07T00:30:04;3.33;;;2.97;;
17414;SDS011;8825;48.086;16.426;2023-05-07T00:32:32;2.90;;;2.60;;
17414;SDS011;8825;48.086;16.426;2023-05-07T00:38:22;2.80;;;2.60;;
17414;SDS011;8825;48.086;16.426;2023-05-07T00:40:50;2.90;;;2.70;;
17414;SDS011;8825;48.086;16.426;2023-05-07T00:46:40;9.20;;;3.73;;
17414;SDS011;8825;48.086;16.426;2023-05-07T00:52:30;3.53;;;2.50;;
17414;SDS011;8825;48.086;16.426;2023-05-07T00:58:20;2.77;;;2.57;;
17414;SDS011;8825;48.086;16.426;2023-05-07T01:00:49;2.50;;;2.40;;
17414;SDS011;8825;48.086;16.426;2023-05-07T01:03:16;3.07;;;2.87;;
17414;SDS011;8825;48.086;16.426;2023-05-07T01:05:44;3.27;;;2.80;;
17414;SDS011;8825;48.086;16.426;2023-05-07T01:08:14;3.03;;;2.73;;
17414;SDS011;8825;48.086;16.426;2023-05-07T01:10:43;4.80;;;4.37;;
17414;SDS011;8825;48.086;16.426;2023-05-07T01:13:12;4.07;;;3.67;;
17414;SDS011;8825;48.086;16.426;2023-05-07T01:19:03;4.67;;;4.27;;
17414;SDS011;8825;48.086;16.426;2023-05-07T01:21:32;7.30;;;6.60;;
17414;SDS011;8825;48.086;16.426;2023-05-07T01:27:25;10.47;;;4.23;;
17414;SDS011;8825;48.086;16.426;2023-05-07T01:33:15;3.03;;;2.83;;
17414;SDS011;8825;48.086;16.426;2023-05-07T01:35:46;3.17;;;2.97;;
17414;SDS011;8825;48.086;16.426;2023-05-07T01:38:16;3.10;;;2.90;;
17414;SDS011;8825;48.086;16.426;2023-05-07T01:40:44;3.50;;;3.20;;
17414;SDS011;8825;48.086;16.426;2023-05-07T01:43:13;3.37;;;3.07;;
17414;SDS011;8825;48.086;16.426;2023-05-07T01:49:04;4.77;;;4.07;;
17414;SDS011;8825;48.086;16.426;2023-05-07T01:51:33;4.17;;;3.77;;
17414;SDS011;8825;48.086;16.426;2023-05-07T01:54:02;4.00;;;3.60;;
17414;SDS011;8825;48.086;16.426;2023-05-07T01:56:29;3.73;;;3.43;;
17414;SDS011;8825;48.086;16.426;2023-05-07T01:58:57;3.43;;;3.13;;
17414;SDS011;8825;48.086;16.426;2023-05-07T02:01:25;3.43;;;3.13;;
17414;SDS011;8825;48.086;16.426;2023-05-07T02:03:53;2.70;;;2.50;;
17414;SDS011;8825;48.086;16.426;2023-05-07T02:06:21;2.43;;;2.23;;
17414;SDS011;8825;48.086;16.426;2023-05-07T02:08:48;2.80;;;2.60;;
17414;SDS011;8825;48.086;16.426;2023-05-07T02:11:16;3.13;;;2.50;;
17414;SDS011;8825;48.086;16.426;2023-05-07T02:13:44;2.70;;;2.50;;
17414;SDS011;8825;48.086;16.426;2023-05-07T02:16:12;2.50;;;2.30;;
17414;SDS011;8825;48.086;16.426;2023-05-07T02:22:01;2.43;;;2.23;;
17414;SDS011;8825;48.086;16.426;2023-05-07T02:27:51;2.73;;;2.50;;
17414;SDS011;8825;48.086;16.426;2023-05-07T02:33:41;2.50;;;2.30;;
17414;SDS011;8825;48.086;16.426;2023-05-07T02:42:18;2.20;;;2.10;;
17414;SDS011;8825;48.086;16.426;2023-05-07T02:48:08;2.20;;;2.10;;
17414;SDS011;8825;48.086;16.426;2023-05-07T02:53:58;2.30;;;2.20;;
17414;SDS011;8825;48.086;16.426;2023-05-07T02:59:48;2.77;;;2.20;;
17414;SDS011;8825;48.086;16.426;2023-05-07T03:02:16;2.67;;;2.10;;
17414;SDS011;8825;48.086;16.426;2023-05-07T03:08:06;2.20;;;2.10;;
17414;SDS011;8825;48.086;16.426;2023-05-07T03:13:57;2.30;;;2.10;;
17414;SDS011;8825;48.086;16.426;2023-05-07T03:19:22;1.97;;;1.87;;
17414;SDS011;8825;48.086;16.426;2023-05-07T03:25:12;2.43;;;2.23;;
17414;SDS011;8825;48.086;16.426;2023-05-07T03:27:40;2.40;;;2.13;;
17414;SDS011;8825;48.086;16.426;2023-05-07T03:33:32;2.67;;;2.47;;
17414;SDS011;8825;48.086;16.426;2023-05-07T03:39:26;2.60;;;2.40;;
17414;SDS011;8825;48.086;16.426;2023-05-07T03:54:49;3.10;;;2.70;;
17414;SDS011;8825;48.086;16.426;2023-05-07T03:57:17;3.67;;;3.37;;
17414;SDS011;8825;48.086;16.426;2023-05-07T03:59:45;3.53;;;3.23;;
17414;SDS011;8825;48.086;16.426;2023-05-07T04:02:13;3.10;;;2.90;;
17414;SDS011;8825;48.086;16.426;2023-05-07T04:04:41;3.20;;;3.00;;
17414;SDS011;8825;48.086;16.426;2023-05-07T04:10:31;5.40;;;3.37;;
17414;SDS011;8825;48.086;16.426;2023-05-07T04:12:59;4.40;;;4.10;;
17414;SDS011;8825;48.086;16.426;2023-05-07T04:18:24;4.20;;;3.80;;
17414;SDS011;8825;48.086;16.426;2023-05-07T04:24:14;3.93;;;3.63;;
17414;SDS011;8825;48.086;16.426;2023-05-07T04:30:05;4.50;;;4.10;;
17414;SDS011;8825;48.086;16.426;2023-05-07T04:32:53;5.27;;;4.87;;
17414;SDS011;8825;48.086;16.426;2023-05-07T04:35:21;4.97;;;4.57;;
17414;SDS011;8825;48.086;16.426;2023-05-07T04:37:49;4.27;;;3.90;;
17414;SDS011;8825;48.086;16.426;2023-05-07T04:40:17;4.73;;;4.33;;
17414;SDS011;8825;48.086;16.426;2023-05-07T04:42:45;4.93;;;4.53;;
17414;SDS011;8825;48.086;16.426;2023-05-07T04:45:13;4.43;;;3.93;;
17414;SDS011;8825;48.086;16.426;2023-05-07T04:47:41;4.67;;;4.27;;
17414;SDS011;8825;48.086;16.426;2023-05-07T04:50:09;5.37;;;4.90;;
17414;SDS011;8825;48.086;16.426;2023-05-07T04:55:59;4.67;;;4.27;;
17414;SDS011;8825;48.086;16.426;2023-05-07T04:58:27;6.33;;;5.73;;
17414;SDS011;8825;48.086;16.426;2023-05-07T05:04:19;9.30;;;6.60;;
17414;SDS011;8825;48.086;16.426;2023-05-07T05:10:09;8.70;;;7.80;;
17414;SDS011;8825;48.086;16.426;2023-05-07T05:12:37;7.63;;;6.93;;
17414;SDS011;8825;48.086;16.426;2023-05-07T05:15:05;7.87;;;7.00;;
17414;SDS011;8825;48.086;16.426;2023-05-07T05:20:31;9.03;;;8.20;;
17414;SDS011;8825;48.086;16.426;2023-05-07T05:26:21;9.30;;;8.47;;
17414;SDS011;8825;48.086;16.426;2023-05-07T05:28:48;9.90;;;8.90;;
17414;SDS011;8825;48.086;16.426;2023-05-07T05:31:16;10.17;;;9.17;;
17414;SDS011;8825;48.086;16.426;2023-05-07T05:33:44;9.37;;;8.57;;
17414;SDS011;8825;48.086;16.426;2023-05-07T05:39:34;9.17;;;8.37;;
17414;SDS011;8825;48.086;16.426;2023-05-07T05:45:25;10.90;;;9.80;;
17414;SDS011;8825;48.086;16.426;2023-05-07T05:51:15;9.67;;;8.87;;
17414;SDS011;8825;48.086;16.426;2023-05-07T05:53:43;10.53;;;9.53;;
17414;SDS011;8825;48.086;16.426;2023-05-07T05:59:33;10.17;;;9.27;;
17414;SDS011;8825;48.086;16.426;2023-05-07T06:05:23;9.80;;;8.80;;
17414;SDS011;8825;48.086;16.426;2023-05-07T06:11:13;10.47;;;9.50;;
17414;SDS011;8825;48.086;16.426;2023-05-07T06:17:03;11.87;;;10.70;;
17414;SDS011;8825;48.086;16.426;2023-05-07T06:19:31;15.20;;;13.80;;
17414;SDS011;8825;48.086;16.426;2023-05-07T06:25:21;18.27;;;16.53;;
17414;SDS011;8825;48.086;16.426;2023-05-07T06:31:12;17.13;;;15.43;;
17414;SDS011;8825;48.086;16.426;2023-05-07T06:37:07;18.13;;;16.23;;
17414;SDS011;8825;48.086;16.426;2023-05-07T06:39:35;18.43;;;16.73;;
17414;SDS011;8825;48.086;16.426;2023-05-07T06:45:25;15.00;;;13.50;;
17414;SDS011;8825;48.086;16.426;2023-05-07T06:51:15;17.03;;;15.33;;
17414;SDS011;8825;48.086;16.426;2023-05-07T06:57:05;14.03;;;12.73;;
17414;SDS011;8825;48.086;16.426;2023-05-07T06:59:33;16.03;;;14.53;;
17414;SDS011;8825;48.086;16.426;2023-05-07T07:02:01;14.77;;;13.30;;
17414;SDS011;8825;48.086;16.426;2023-05-07T07:04:29;14.70;;;13.33;;
17414;SDS011;8825;48.086;16.426;2023-05-07T07:06:57;16.33;;;14.57;;
17414;SDS011;8825;48.086;16.426;2023-05-07T07:09:25;15.20;;;13.87;;
17414;SDS011;8825;48.086;16.426;2023-05-07T07:11:52;14.63;;;13.30;;
17414;SDS011;8825;48.086;16.426;2023-05-07T07:14:20;14.67;;;13.27;;
17414;SDS011;8825;48.086;16.426;2023-05-07T07:16:48;15.83;;;14.37;;
17414;SDS011;8825;48.086;16.426;2023-05-07T07:19:16;16.67;;;14.97;;
17414;SDS011;8825;48.086;16.426;2023-05-07T07:21:46;15.47;;;14.07;;
17414;SDS011;8825;48.086;16.426;2023-05-07T07:27:36;13.93;;;12.63;;
17414;SDS011;8825;48.086;16.426;2023-05-07T07:30:06;13.30;;;12.10;;
17414;SDS011;8825;48.086;16.426;2023-05-07T07:32:36;13.53;;;12.13;;
17414;SDS011;8825;48.086;16.426;2023-05-07T07:35:05;15.23;;;13.73;;
17414;SDS011;8825;48.086;16.426;2023-05-07T07:37:36;13.70;;;12.30;;
17414;SDS011;8825;48.086;16.426;2023-05-07T07:40:05;14.50;;;13.20;;
17414;SDS011;8825;48.086;16.426;2023-05-07T07:42:35;14.40;;;13.00;;
17414;SDS011;8825;48.086;16.426;2023-05-07T07:45:03;14.80;;;13.50;;
17414;SDS011;8825;48.086;16.426;2023-05-07T07:54:18;13.90;;;12.60;;
17414;SDS011;8825;48.086;16.426;2023-05-07T07:56:48;12.70;;;11.60;;
17414;SDS011;8825;48.086;16.426;2023-05-07T08:08:51;14.80;;;13.40;;
17414;SDS011;8825;48.086;16.426;2023-05-07T08:11:22;13.93;;;12.53;;
17414;SDS011;8825;48.086;16.426;2023-05-07T08:17:13;12.30;;;11.10;;
17414;SDS011;8825;48.086;16.426;2023-05-07T08:22:40;14.30;;;12.90;;
17414;SDS011;8825;48.086;16.426;2023-05-07T08:28:31;11.53;;;10.43;;
17414;SDS011;8825;48.086;16.426;2023-05-07T08:30:59;10.70;;;9.70;;
17414;SDS011;8825;48.086;16.426;2023-05-07T08:33:28;11.70;;;10.60;;
17414;SDS011;8825;48.086;16.426;2023-05-07T08:35:56;11.37;;;10.37;;
17414;SDS011;8825;48.086;16.426;2023-05-07T08:38:24;11.90;;;10.80;;
17414;SDS011;8825;48.086;16.426;2023-05-07T08:40:54;12.20;;;11.00;;
17414;SDS011;8825;48.086;16.426;2023-05-07T08:43:25;13.70;;;12.40;;
17414;SDS011;8825;48.086;16.426;2023-05-07T08:45:54;12.00;;;10.90;;
17414;SDS011;8825;48.086;16.426;2023-05-07T08:48:25;12.63;;;11.43;;
17414;SDS011;8825;48.086;16.426;2023-05-07T08:54:20;12.83;;;10.90;;
17414;SDS011;8825;48.086;16.426;2023-05-07T09:00:11;10.93;;;9.93;;
17414;SDS011;8825;48.086;16.426;2023-05-07T09:06:02;12.00;;;10.80;;
17414;SDS011;8825;48.086;16.426;2023-05-07T09:08:32;11.37;;;10.33;;
17414;SDS011;8825;48.086;16.426;2023-05-07T09:14:22;10.33;;;9.33;;
17414;SDS011;8825;48.086;16.426;2023-05-07T09:20:12;10.83;;;9.73;;
17414;SDS011;8825;48.086;16.426;2023-05-07T09:22:40;10.57;;;9.67;;
17414;SDS011;8825;48.086;16.426;2023-05-07T09:28:31;10.30;;;9.30;;
17414;SDS011;8825;48.086;16.426;2023-05-07T09:34:21;10.70;;;9.60;;
17414;SDS011;8825;48.086;16.426;2023-05-07T09:41:12;10.60;;;9.60;;
17414;SDS011;8825;48.086;16.426;2023-05-07T09:42:50;10.43;;;9.43;;
17414;SDS011;8825;48.086;16.426;2023-05-07T09:48:40;8.57;;;7.60;;
17414;SDS011;8825;48.086;16.426;2023-05-07T09:54:32;8.53;;;7.73;;
17414;SDS011;8825;48.086;16.426;2023-05-07T10:00:22;8.70;;;7.80;;
17414;SDS011;8825;48.086;16.426;2023-05-07T10:09:37;8.17;;;7.47;;
17414;SDS011;8825;48.086;16.426;2023-05-07T10:15:30;6.40;;;5.90;;
17414;SDS011;8825;48.086;16.426;2023-05-07T10:17:58;7.60;;;6.90;;
17414;SDS011;8825;48.086;16.426;2023-05-07T10:20:26;6.90;;;6.30;;
17414;SDS011;8825;48.086;16.426;2023-05-07T10:22:55;8.37;;;7.40;;
17414;SDS011;8825;48.086;16.426;2023-05-07T10:28:49;7.50;;;6.90;;
17414;SDS011;8825;48.086;16.426;2023-05-07T10:34:41;6.97;;;6.37;;
17414;SDS011;8825;48.086;16.426;2023-05-07T10:40:33;10.90;;;9.97;;
17414;SDS011;8825;48.086;16.426;2023-05-07T10:46:23;7.63;;;6.93;;
17414;SDS011;8825;48.086;16.426;2023-05-07T10:51:32;8.77;;;7.97;;
17414;SDS011;8825;48.086;16.426;2023-05-07T10:54:37;8.33;;;7.53;;
17414;SDS011;8825;48.086;16.426;2023-05-07T11:06:20;8.60;;;6.40;;
17414;SDS011;8825;48.086;16.426;2023-05-07T11:20:48;7.60;;;6.83;;
17414;SDS011;8825;48.086;16.426;2023-05-07T11:26:43;8.27;;;7.43;;
17414;SDS011;8825;48.086;16.426;2023-05-07T11:29:19;6.97;;;6.27;;
17414;SDS011;8825;48.086;16.426;2023-05-07T11:31:48;7.80;;;7.10;;
17414;SDS011;8825;48.086;16.426;2023-05-07T11:34:23;7.53;;;6.83;;
17414;SDS011;8825;48.086;16.426;2023-05-07T11:36:52;7.13;;;6.43;;
17414;SDS011;8825;48.086;16.426;2023-05-07T11:39:29;7.67;;;6.87;;
17414;SDS011;8825;48.086;16.426;2023-05-07T11:41:53;6.47;;;5.97;;
17414;SDS011;8825;48.086;16.426;2023-05-07T11:44:21;6.60;;;6.00;;
17414;SDS011;8825;48.086;16.426;2023-05-07T11:46:49;6.43;;;5.83;;
17414;SDS011;8825;48.086;16.426;2023-05-07T11:52:39;7.50;;;6.80;;
17414;SDS011;8825;48.086;16.426;2023-05-07T11:55:08;6.43;;;5.87;;
17414;SDS011;8825;48.086;16.426;2023-05-07T11:57:36;6.40;;;5.90;;
17414;SDS011;8825;48.086;16.426;2023-05-07T12:00:04;5.87;;;5.00;;
17414;SDS011;8825;48.086;16.426;2023-05-07T12:02:33;6.10;;;5.60;;
17414;SDS011;8825;48.086;16.426;2023-05-07T12:05:01;5.90;;;5.40;;
17414;SDS011;8825;48.086;16.426;2023-05-07T12:07:28;7.33;;;6.30;;
17414;SDS011;8825;48.086;16.426;2023-05-07T12:09:57;5.87;;;5.37;;
17414;SDS011;8825;48.086;16.426;2023-05-07T12:15:50;7.03;;;5.47;;
17414;SDS011;8825;48.086;16.426;2023-05-07T12:21:42;5.47;;;4.97;;
17414;SDS011;8825;48.086;16.426;2023-05-07T12:27:32;6.53;;;5.63;;
17414;SDS011;8825;48.086;16.426;2023-05-07T12:33:24;6.63;;;6.03;;
17414;SDS011;8825;48.086;16.426;2023-05-07T12:35:55;6.03;;;5.43;;
17414;SDS011;8825;48.086;16.426;2023-05-07T12:38:23;6.37;;;5.77;;
17414;SDS011;8825;48.086;16.426;2023-05-07T12:40:53;6.77;;;5.83;;
17414;SDS011;8825;48.086;16.426;2023-05-07T12:43:26;7.40;;;6.70;;
17414;SDS011;8825;48.086;16.426;2023-05-07T12:46:00;6.73;;;6.13;;
17414;SDS011;8825;48.086;16.426;2023-05-07T12:48:25;6.60;;;5.67;;
17414;SDS011;8825;48.086;16.426;2023-05-07T12:50:53;6.67;;;6.07;;
17414;SDS011;8825;48.086;16.426;2023-05-07T12:53:22;6.70;;;6.10;;
17414;SDS011;8825;48.086;16.426;2023-05-07T12:55:57;7.47;;;6.10;;
17414;SDS011;8825;48.086;16.426;2023-05-07T12:58:29;6.37;;;5.77;;
17414;SDS011;8825;48.086;16.426;2023-05-07T13:00:59;8.17;;;6.77;;
17414;SDS011;8825;48.086;16.426;2023-05-07T13:03:32;6.23;;;5.63;;
17414;SDS011;8825;48.086;16.426;2023-05-07T13:09:59;7.23;;;5.77;;
17414;SDS011;8825;48.086;16.426;2023-05-07T13:12:27;5.73;;;5.13;;
17414;SDS011;8825;48.086;16.426;2023-05-07T13:18:17;6.47;;;5.70;;
17414;SDS011;8825;48.086;16.426;2023-05-07T13:24:07;6.40;;;5.80;;
17414;SDS011;8825;48.086;16.426;2023-05-07T13:26:35;6.13;;;5.53;;
17414;SDS011;8825;48.086;16.426;2023-05-07T13:29:03;6.33;;;5.77;;
17414;SDS011;8825;48.086;16.426;2023-05-07T13:34:53;5.00;;;4.60;;
17414;SDS011;8825;48.086;16.426;2023-05-07T13:37:21;4.80;;;4.40;;
17414;SDS011;8825;48.086;16.426;2023-05-07T13:43:11;4.50;;;4.10;;
17414;SDS011;8825;48.086;16.426;2023-05-07T13:49:01;4.40;;;4.10;;
17414;SDS011;8825;48.086;16.426;2023-05-07T13:54:51;5.30;;;4.80;;
17414;SDS011;8825;48.086;16.426;2023-05-07T13:57:18;4.70;;;4.30;;
17414;SDS011;8825;48.086;16.426;2023-05-07T13:59:46;4.77;;;4.37;;
17414;SDS011;8825;48.086;16.426;2023-05-07T14:02:14;5.13;;;4.50;;
17414;SDS011;8825;48.086;16.426;2023-05-07T14:04:42;6.93;;;4.20;;
17414;SDS011;8825;48.086;16.426;2023-05-07T14:07:11;4.77;;;4.37;;
17414;SDS011;8825;48.086;16.426;2023-05-07T14:09:38;5.93;;;4.70;;
17414;SDS011;8825;48.086;16.426;2023-05-07T14:15:28;4.17;;;3.77;;
17414;SDS011;8825;48.086;16.426;2023-05-07T14:17:58;4.90;;;4.50;;
17414;SDS011;8825;48.086;16.426;2023-05-07T14:23:48;4.43;;;4.10;;
17414;SDS011;8825;48.086;16.426;2023-05-07T14:29:39;4.47;;;4.07;;
17414;SDS011;8825;48.086;16.426;2023-05-07T14:35:28;4.33;;;3.93;;
17414;SDS011;8825;48.086;16.426;2023-05-07T14:37:56;4.27;;;3.87;;
17414;SDS011;8825;48.086;16.426;2023-05-07T14:40:24;4.10;;;3.80;;
17414;SDS011;8825;48.086;16.426;2023-05-07T14:42:52;4.63;;;4.23;;
17414;SDS011;8825;48.086;16.426;2023-05-07T14:45:20;4.83;;;4.33;;
17414;SDS011;8825;48.086;16.426;2023-05-07T14:47:49;4.30;;;3.90;;
17414;SDS011;8825;48.086;16.426;2023-05-07T14:50:19;4.17;;;3.77;;
17414;SDS011;8825;48.086;16.426;2023-05-07T14:52:51;4.43;;;4.03;;
17414;SDS011;8825;48.086;16.426;2023-05-07T14:55:24;3.80;;;3.50;;
17414;SDS011;8825;48.086;16.426;2023-05-07T14:58:13;4.23;;;3.63;;
17414;SDS011;8825;48.086;16.426;2023-05-07T15:00:41;4.10;;;3.70;;
17414;SDS011;8825;48.086;16.426;2023-05-07T15:03:09;3.40;;;3.10;;
17414;SDS011;8825;48.086;16.426;2023-05-07T15:05:37;4.87;;;3.80;;
17414;SDS011;8825;48.086;16.426;2023-05-07T15:08:05;4.13;;;3.40;;
17414;SDS011;8825;48.086;16.426;2023-05-07T15:10:35;5.30;;;3.30;;
17414;SDS011;8825;48.086;16.426;2023-05-07T15:13:04;3.50;;;3.13;;
17414;SDS011;8825;48.086;16.426;2023-05-07T15:15:32;2.90;;;2.70;;
17414;SDS011;8825;48.086;16.426;2023-05-07T15:24:09;3.43;;;3.13;;
17414;SDS011;8825;48.086;16.426;2023-05-07T15:29:59;3.00;;;2.80;;
17414;SDS011;8825;48.086;16.426;2023-05-07T15:35:48;2.90;;;2.70;;
17414;SDS011;8825;48.086;16.426;2023-05-07T15:41:39;3.07;;;2.80;;
17414;SDS011;8825;48.086;16.426;2023-05-07T15:44:06;2.90;;;2.70;;
17414;SDS011;8825;48.086;16.426;2023-05-07T15:46:34;3.50;;;2.80;;
17414;SDS011;8825;48.086;16.426;2023-05-07T15:49:02;2.83;;;2.63;;
17414;SDS011;8825;48.086;16.426;2023-05-07T15:51:30;2.93;;;2.70;;
17414;SDS011;8825;48.086;16.426;2023-05-07T15:53:59;4.23;;;2.93;;
17414;SDS011;8825;48.086;16.426;2023-05-07T15:56:27;3.20;;;2.93;;
17414;SDS011;8825;48.086;16.426;2023-05-07T16:02:18;3.13;;;2.83;;
17414;SDS011;8825;48.086;16.426;2023-05-07T16:04:46;3.00;;;2.80;;
17414;SDS011;8825;48.086;16.426;2023-05-07T16:07:14;3.30;;;3.00;;
17414;SDS011;8825;48.086;16.426;2023-05-07T16:09:42;3.60;;;3.30;;
17414;SDS011;8825;48.086;16.426;2023-05-07T16:12:09;4.00;;;3.50;;
17414;SDS011;8825;48.086;16.426;2023-05-07T16:14:37;3.60;;;3.30;;
17414;SDS011;8825;48.086;16.426;2023-05-07T16:17:05;3.70;;;3.20;;
17414;SDS011;8825;48.086;16.426;2023-05-07T16:32:08;3.50;;;3.20;;
17414;SDS011;8825;48.086;16.426;2023-05-07T16:37:58;3.40;;;3.10;;
17414;SDS011;8825;48.086;16.426;2023-05-07T16:40:26;4.30;;;3.50;;
17414;SDS011;8825;48.086;16.426;2023-05-07T16:42:54;3.80;;;3.00;;
17414;SDS011;8825;48.086;16.426;2023-05-07T16:50:52;3.43;;;3.13;;
17414;SDS011;8825;48.086;16.426;2023-05-07T16:53:20;3.73;;;3.43;;
17414;SDS011;8825;48.086;16.426;2023-05-07T16:55:48;3.80;;;3.50;;
17414;SDS011;8825;48.086;16.426;2023-05-07T16:58:15;3.53;;;3.23;;
17414;SDS011;8825;48.086;16.426;2023-05-07T17:00:43;4.10;;;3.80;;
17414;SDS011;8825;48.086;16.426;2023-05-07T17:03:10;4.00;;;3.63;;
17414;SDS011;8825;48.086;16.426;2023-05-07T17:05:38;3.87;;;3.50;;
17414;SDS011;8825;48.086;16.426;2023-05-07T17:08:06;4.13;;;3.77;;
17414;SDS011;8825;48.086;16.426;2023-05-07T17:10:33;5.10;;;3.93;;
17414;SDS011;8825;48.086;16.426;2023-05-07T17:13:01;4.50;;;4.10;;
17414;SDS011;8825;48.086;16.426;2023-05-07T17:15:28;4.27;;;3.97;;
17414;SDS011;8825;48.086;16.426;2023-05-07T17:17:56;4.97;;;4.57;;
17414;SDS011;8825;48.086;16.426;2023-05-07T17:20:23;4.60;;;4.23;;
17414;SDS011;8825;48.086;16.426;2023-05-07T17:22:51;6.43;;;4.80;;
17414;SDS011;8825;48.086;16.426;2023-05-07T17:25:20;4.53;;;4.13;;
17414;SDS011;8825;48.086;16.426;2023-05-07T17:27:49;4.37;;;3.97;;
17414;SDS011;8825;48.086;16.426;2023-05-07T17:30:16;4.60;;;4.13;;
17414;SDS011;8825;48.086;16.426;2023-05-07T17:32:44;4.60;;;4.20;;
17414;SDS011;8825;48.086;16.426;2023-05-07T17:35:11;5.17;;;4.30;;
17414;SDS011;8825;48.086;16.426;2023-05-07T17:37:39;4.57;;;4.27;;
17414;SDS011;8825;48.086;16.426;2023-05-07T17:40:08;6.80;;;4.40;;
17414;SDS011;8825;48.086;16.426;2023-05-07T17:42:36;4.50;;;4.20;;
17414;SDS011;8825;48.086;16.426;2023-05-07T17:45:03;5.10;;;4.70;;
17414;SDS011;8825;48.086;16.426;2023-05-07T17:47:31;4.50;;;4.10;;
17414;SDS011;8825;48.086;16.426;2023-05-07T17:50:00;4.30;;;3.90;;
17414;SDS011;8825;48.086;16.426;2023-05-07T17:52:29;4.73;;;4.37;;
17414;SDS011;8825;48.086;16.426;2023-05-07T17:54:57;4.80;;;4.30;;
17414;SDS011;8825;48.086;16.426;2023-05-07T17:57:24;4.70;;;4.30;;
17414;SDS011;8825;48.086;16.426;2023-05-07T17:59:52;4.87;;;4.47;;
17414;SDS011;8825;48.086;16.426;2023-05-07T18:02:20;5.10;;;4.70;;
17414;SDS011;8825;48.086;16.426;2023-05-07T18:04:48;5.03;;;4.63;;
17414;SDS011;8825;48.086;16.426;2023-05-07T18:07:15;5.87;;;5.33;;
17414;SDS011;8825;48.086;16.426;2023-05-07T18:09:43;4.50;;;4.20;;
17414;SDS011;8825;48.086;16.426;2023-05-07T18:12:10;5.47;;;5.07;;
17414;SDS011;8825;48.086;16.426;2023-05-07T18:14:38;5.53;;;5.03;;
17414;SDS011;8825;48.086;16.426;2023-05-07T18:17:05;5.70;;;5.20;;
17414;SDS011;8825;48.086;16.426;2023-05-07T18:19:33;6.13;;;5.60;;
17414;SDS011;8825;48.086;16.426;2023-05-07T18:22:01;6.37;;;5.60;;
17414;SDS011;8825;48.086;16.426;2023-05-07T18:24:29;6.37;;;5.77;;
17414;SDS011;8825;48.086;16.426;2023-05-07T18:26:56;5.93;;;5.43;;
17414;SDS011;8825;48.086;16.426;2023-05-07T18:29:23;8.30;;;6.00;;
17414;SDS011;8825;48.086;16.426;2023-05-07T18:31:51;5.73;;;5.23;;
17414;SDS011;8825;48.086;16.426;2023-05-07T18:34:18;5.60;;;5.10;;
17414;SDS011;8825;48.086;16.426;2023-05-07T18:36:46;5.93;;;5.33;;
17414;SDS011;8825;48.086;16.426;2023-05-07T18:39:13;6.40;;;5.90;;
17414;SDS011;8825;48.086;16.426;2023-05-07T18:41:41;5.37;;;4.97;;
17414;SDS011;8825;48.086;16.426;2023-05-07T18:44:10;5.50;;;5.00;;
17414;SDS011;8825;48.086;16.426;2023-05-07T18:46:37;5.37;;;4.97;;
17414;SDS011;8825;48.086;16.426;2023-05-07T18:49:06;6.30;;;5.80;;
17414;SDS011;8825;48.086;16.426;2023-05-07T18:51:33;5.87;;;5.27;;
17414;SDS011;8825;48.086;16.426;2023-05-07T18:54:01;6.17;;;5.67;;
17414;SDS011;8825;48.086;16.426;2023-05-07T18:56:28;6.40;;;5.80;;
17414;SDS011;8825;48.086;16.426;2023-05-07T18:58:56;6.27;;;5.77;;
17414;SDS011;8825;48.086;16.426;2023-05-07T19:01:23;6.47;;;5.97;;
17414;SDS011;8825;48.086;16.426;2023-05-07T19:03:51;6.97;;;6.27;;
17414;SDS011;8825;48.086;16.426;2023-05-07T19:06:18;7.23;;;6.63;;
17414;SDS011;8825;48.086;16.426;2023-05-07T19:08:46;7.80;;;7.10;;
17414;SDS011;8825;48.086;16.426;2023-05-07T19:11:14;7.20;;;6.60;;
17414;SDS011;8825;48.086;16.426;2023-05-07T19:13:42;7.87;;;7.17;;
17414;SDS011;8825;48.086;16.426;2023-05-07T19:16:09;8.00;;;7.30;;
17414;SDS011;8825;48.086;16.426;2023-05-07T19:18:38;7.67;;;6.97;;
17414;SDS011;8825;48.086;16.426;2023-05-07T19:21:06;7.83;;;7.13;;
17414;SDS011;8825;48.086;16.426;2023-05-07T19:23:34;8.67;;;7.90;;
17414;SDS011;8825;48.086;16.426;2023-05-07T19:26:04;8.93;;;8.13;;
17414;SDS011;8825;48.086;16.426;2023-05-07T19:28:31;8.67;;;7.97;;
17414;SDS011;8825;48.086;16.426;2023-05-07T19:30:59;9.13;;;8.30;;
17414;SDS011;8825;48.086;16.426;2023-05-07T19:33:26;9.60;;;8.70;;
17414;SDS011;8825;48.086;16.426;2023-05-07T19:35:55;10.37;;;9.37;;
17414;SDS011;8825;48.086;16.426;2023-05-07T19:38:26;11.07;;;10.10;;
17414;SDS011;8825;48.086;16.426;2023-05-07T19:40:54;10.27;;;9.37;;
17414;SDS011;8825;48.086;16.426;2023-05-07T19:46:10;11.17;;;10.07;;
17414;SDS011;8825;48.086;16.426;2023-05-07T19:48:38;11.13;;;10.13;;
17414;SDS011;8825;48.086;16.426;2023-05-07T19:51:05;10.90;;;10.00;;
17414;SDS011;8825;48.086;16.426;2023-05-07T19:53:33;11.97;;;10.87;;
17414;SDS011;8825;48.086;16.426;2023-05-07T19:56:05;11.60;;;10.57;;
17414;SDS011;8825;48.086;16.426;2023-05-07T19:58:34;11.13;;;10.23;;
17414;SDS011;8825;48.086;16.426;2023-05-07T20:01:03;12.77;;;11.47;;
17414;SDS011;8825;48.086;16.426;2023-05-07T20:03:31;12.40;;;11.17;;
17414;SDS011;8825;48.086;16.426;2023-05-07T20:06:01;11.57;;;10.53;;
17414;SDS011;8825;48.086;16.426;2023-05-07T20:08:28;12.23;;;11.13;;
17414;SDS011;8825;48.086;16.426;2023-05-07T20:10:56;11.03;;;9.93;;
17414;SDS011;8825;48.086;16.426;2023-05-07T20:13:24;11.87;;;10.67;;
17414;SDS011;8825;48.086;16.426;2023-05-07T20:15:56;11.70;;;10.70;;
17414;SDS011;8825;48.086;16.426;2023-05-07T20:18:25;10.33;;;9.43;;
17414;SDS011;8825;48.086;16.426;2023-05-07T20:20:53;11.43;;;10.33;;
17414;SDS011;8825;48.086;16.426;2023-05-07T20:23:21;10.90;;;9.90;;
17414;SDS011;8825;48.086;16.426;2023-05-07T20:25:49;10.63;;;9.63;;
17414;SDS011;8825;48.086;16.426;2023-05-07T20:28:17;10.43;;;9.53;;
17414;SDS011;8825;48.086;16.426;2023-05-07T20:30:44;10.03;;;9.03;;
17414;SDS011;8825;48.086;16.426;2023-05-07T20:33:12;10.27;;;9.27;;
17414;SDS011;8825;48.086;16.426;2023-05-07T20:35:39;10.20;;;9.30;;
17414;SDS011;8825;48.086;16.426;2023-05-07T20:38:07;9.60;;;8.80;;
17414;SDS011;8825;48.086;16.426;2023-05-07T20:40:35;8.63;;;7.83;;
17414;SDS011;8825;48.086;16.426;2023-05-07T20:43:04;9.63;;;8.73;;
17414;SDS011;8825;48.086;16.426;2023-05-07T20:45:31;10.20;;;9.30;;
17414;SDS011;8825;48.086;16.426;2023-05-07T20:47:59;10.77;;;9.77;;
17414;SDS011;8825;48.086;16.426;2023-05-07T20:50:27;11.60;;;10.50;;
17414;SDS011;8825;48.086;16.426;2023-05-07T20:52:54;12.77;;;11.57;;
17414;SDS011;8825;48.086;16.426;2023-05-07T20:55:22;13.70;;;12.50;;
17414;SDS011;8825;48.086;16.426;2023-05-07T20:57:50;13.30;;;12.10;;
17414;SDS011;8825;48.086;16.426;2023-05-07T21:00:17;12.63;;;11.43;;
17414;SDS011;8825;48.086;16.426;2023-05-07T21:02:45;13.03;;;11.67;;
17414;SDS011;8825;48.086;16.426;2023-05-07T21:05:12;14.07;;;12.77;;
17414;SDS011;8825;48.086;16.426;2023-05-07T21:07:40;14.50;;;13.07;;
17414;SDS011;8825;48.086;16.426;2023-05-07T21:10:07;13.97;;;12.77;;
17414;SDS011;8825;48.086;16.426;2023-05-07T21:12:35;13.50;;;12.30;;
17414;SDS011;8825;48.086;16.426;2023-05-07T21:15:04;15.47;;;14.07;;